sensor_id;sensor_type;location;lat;lon;timestamp;P1;durP1;ratioP1;P2;durP2;ratioP2
15480;SDS011;7842;50.904;6.670;2023-07-20T00:01:57;5.33;;;3.80;;
15480;SDS011;7842;50.904;6.670;2023-07-20T00:04:23;5.37;;;3.87;;
15480;SDS011;7842;50.904;6.670;2023-07-20T00:06:48;6.65;;;3.92;;
15480;SDS011;7842;50.904;6.670;2023-07-20T00:09:14;8.03;;;4.10;;
15480;SDS011;7842;50.904;6.670;2023-07-20T00:11:40;8.18;;;4.20;;
15480;SDS011;7842;50.904;6.670;2023-07-20T00:14:12;5.43;;;4.10;;
15480;SDS011;7842;50.904;6.670;2023-07-20T00:16:38;6.40;;;4.13;;
15480;SDS011;7842;50.904;6.670;2023-07-20T00:19:04;4.77;;;3.33;;
15480;SDS011;7842;50.904;6.670;2023-07-20T00:21:31;4.28;;;2.97;;
15480;SDS011;7842;50.904;6.670;2023-07-20T00:23:57;4.75;;;3.00;;
15480;SDS011;7842;50.904;6.670;2023-07-20T00:26:23;4.03;;;3.10;;
15480;SDS011;7842;50.904;6.670;2023-07-20T00:28:49;5.20;;;2.77;;
15480;SDS011;7842;50.904;6.670;2023-07-20T00:31:16;5.22;;;3.05;;
15480;SDS011;7842;50.904;6.670;2023-07-20T00:33:45;4.03;;;3.00;;
15480;SDS011;7842;50.904;6.670;2023-07-20T00:36:11;4.00;;;2.70;;
15480;SDS011;7842;50.904;6.670;2023-07-20T00:38:36;3.60;;;2.90;;
15480;SDS011;7842;50.904;6.670;2023-07-20T00:41:03;3.90;;;2.50;;
15480;SDS011;7842;50.904;6.670;2023-07-20T00:43:29;4.80;;;2.90;;
15480;SDS011;7842;50.904;6.670;2023-07-20T00:45:55;4.43;;;2.70;;
15480;SDS011;7842;50.904;6.670;2023-07-20T00:48:21;3.92;;;2.50;;
15480;SDS011;7842;50.904;6.670;2023-07-20T00:50:47;3.28;;;2.70;;
15480;SDS011;7842;50.904;6.670;2023-07-20T00:53:13;2.80;;;2.45;;
15480;SDS011;7842;50.904;6.670;2023-07-20T00:55:39;3.97;;;2.45;;
15480;SDS011;7842;50.904;6.670;2023-07-20T00:58:05;3.57;;;2.70;;
15480;SDS011;7842;50.904;6.670;2023-07-20T01:00:30;3.95;;;2.40;;
15480;SDS011;7842;50.904;6.670;2023-07-20T01:02:56;3.45;;;2.60;;
15480;SDS011;7842;50.904;6.670;2023-07-20T01:05:23;3.17;;;2.50;;
15480;SDS011;7842;50.904;6.670;2023-07-20T01:08:02;4.63;;;2.80;;
15480;SDS011;7842;50.904;6.670;2023-07-20T01:10:46;3.80;;;2.33;;
15480;SDS011;7842;50.904;6.670;2023-07-20T01:13:29;3.47;;;2.53;;
15480;SDS011;7842;50.904;6.670;2023-07-20T01:16:00;3.63;;;2.50;;
15480;SDS011;7842;50.904;6.670;2023-07-20T01:18:29;5.00;;;2.95;;
15480;SDS011;7842;50.904;6.670;2023-07-20T01:20:57;4.33;;;2.67;;
15480;SDS011;7842;50.904;6.670;2023-07-20T01:23:39;4.05;;;2.70;;
15480;SDS011;7842;50.904;6.670;2023-07-20T01:31:38;4.85;;;3.20;;
15480;SDS011;7842;50.904;6.670;2023-07-20T01:34:05;6.10;;;3.65;;
15480;SDS011;7842;50.904;6.670;2023-07-20T01:36:34;6.40;;;3.10;;
15480;SDS011;7842;50.904;6.670;2023-07-20T01:39:04;4.55;;;3.20;;
15480;SDS011;7842;50.904;6.670;2023-07-20T01:41:31;4.57;;;3.63;;
15480;SDS011;7842;50.904;6.670;2023-07-20T01:43:58;4.07;;;3.30;;
15480;SDS011;7842;50.904;6.670;2023-07-20T01:46:24;6.07;;;3.38;;
15480;SDS011;7842;50.904;6.670;2023-07-20T01:48:54;4.95;;;3.67;;
15480;SDS011;7842;50.904;6.670;2023-07-20T01:51:20;5.75;;;3.40;;
15480;SDS011;7842;50.904;6.670;2023-07-20T01:53:46;5.00;;;3.70;;
15480;SDS011;7842;50.904;6.670;2023-07-20T01:56:11;6.80;;;3.83;;
15480;SDS011;7842;50.904;6.670;2023-07-20T01:58:37;6.07;;;3.80;;
15480;SDS011;7842;50.904;6.670;2023-07-20T02:01:03;5.07;;;3.78;;
15480;SDS011;7842;50.904;6.670;2023-07-20T02:03:29;6.22;;;3.80;;
15480;SDS011;7842;50.904;6.670;2023-07-20T02:05:54;5.68;;;3.92;;
15480;SDS011;7842;50.904;6.670;2023-07-20T02:08:21;4.13;;;3.40;;
15480;SDS011;7842;50.904;6.670;2023-07-20T02:10:52;5.38;;;3.88;;
15480;SDS011;7842;50.904;6.670;2023-07-20T02:13:18;6.70;;;3.80;;
15480;SDS011;7842;50.904;6.670;2023-07-20T02:15:44;5.28;;;3.83;;
15480;SDS011;7842;50.904;6.670;2023-07-20T02:18:09;5.32;;;3.78;;
15480;SDS011;7842;50.904;6.670;2023-07-20T02:20:35;5.50;;;3.63;;
15480;SDS011;7842;50.904;6.670;2023-07-20T02:23:01;4.60;;;3.40;;
15480;SDS011;7842;50.904;6.670;2023-07-20T02:25:26;4.80;;;3.60;;
15480;SDS011;7842;50.904;6.670;2023-07-20T02:27:52;5.15;;;3.65;;
15480;SDS011;7842;50.904;6.670;2023-07-20T02:30:18;6.57;;;3.90;;
15480;SDS011;7842;50.904;6.670;2023-07-20T02:32:43;5.22;;;3.60;;
15480;SDS011;7842;50.904;6.670;2023-07-20T02:35:11;5.85;;;3.50;;
15480;SDS011;7842;50.904;6.670;2023-07-20T02:37:37;5.60;;;3.57;;
15480;SDS011;7842;50.904;6.670;2023-07-20T02:40:03;4.82;;;3.25;;
15480;SDS011;7842;50.904;6.670;2023-07-20T02:42:29;5.57;;;3.50;;
15480;SDS011;7842;50.904;6.670;2023-07-20T02:44:56;5.57;;;3.22;;
15480;SDS011;7842;50.904;6.670;2023-07-20T02:47:22;4.85;;;3.60;;
15480;SDS011;7842;50.904;6.670;2023-07-20T02:49:48;7.57;;;3.83;;
15480;SDS011;7842;50.904;6.670;2023-07-20T02:52:14;6.25;;;4.15;;
15480;SDS011;7842;50.904;6.670;2023-07-20T02:54:43;6.82;;;4.70;;
15480;SDS011;7842;50.904;6.670;2023-07-20T02:57:08;7.20;;;4.63;;
15480;SDS011;7842;50.904;6.670;2023-07-20T02:59:34;5.93;;;4.27;;
15480;SDS011;7842;50.904;6.670;2023-07-20T03:02:00;7.30;;;4.30;;
15480;SDS011;7842;50.904;6.670;2023-07-20T03:04:26;6.22;;;3.55;;
15480;SDS011;7842;50.904;6.670;2023-07-20T03:06:52;5.78;;;3.60;;
15480;SDS011;7842;50.904;6.670;2023-07-20T03:09:17;5.38;;;3.42;;
15480;SDS011;7842;50.904;6.670;2023-07-20T03:11:43;6.20;;;3.57;;
15480;SDS011;7842;50.904;6.670;2023-07-20T03:14:08;5.63;;;3.17;;
15480;SDS011;7842;50.904;6.670;2023-07-20T03:16:35;6.63;;;3.53;;
15480;SDS011;7842;50.904;6.670;2023-07-20T03:19:01;7.57;;;3.60;;
15480;SDS011;7842;50.904;6.670;2023-07-20T03:21:27;5.10;;;3.40;;
15480;SDS011;7842;50.904;6.670;2023-07-20T03:23:56;5.40;;;3.28;;
15480;SDS011;7842;50.904;6.670;2023-07-20T03:26:22;5.72;;;3.00;;
15480;SDS011;7842;50.904;6.670;2023-07-20T03:28:48;4.77;;;3.30;;
15480;SDS011;7842;50.904;6.670;2023-07-20T03:31:14;4.70;;;3.43;;
15480;SDS011;7842;50.904;6.670;2023-07-20T03:33:40;4.45;;;3.03;;
15480;SDS011;7842;50.904;6.670;2023-07-20T03:36:05;4.47;;;3.20;;
15480;SDS011;7842;50.904;6.670;2023-07-20T03:38:31;6.07;;;3.53;;
15480;SDS011;7842;50.904;6.670;2023-07-20T03:40:58;4.95;;;3.20;;
15480;SDS011;7842;50.904;6.670;2023-07-20T03:43:26;6.05;;;3.30;;
15480;SDS011;7842;50.904;6.670;2023-07-20T03:45:52;6.20;;;3.30;;
15480;SDS011;7842;50.904;6.670;2023-07-20T03:48:19;5.97;;;3.27;;
15480;SDS011;7842;50.904;6.670;2023-07-20T03:50:49;5.30;;;3.10;;
15480;SDS011;7842;50.904;6.670;2023-07-20T03:53:16;5.68;;;3.30;;
15480;SDS011;7842;50.904;6.670;2023-07-20T03:55:48;4.80;;;2.95;;
15480;SDS011;7842;50.904;6.670;2023-07-20T03:58:15;6.50;;;3.17;;
15480;SDS011;7842;50.904;6.670;2023-07-20T04:00:45;4.63;;;3.40;;
15480;SDS011;7842;50.904;6.670;2023-07-20T04:03:11;6.73;;;3.40;;
15480;SDS011;7842;50.904;6.670;2023-07-20T04:05:37;4.93;;;3.42;;
15480;SDS011;7842;50.904;6.670;2023-07-20T04:08:03;4.57;;;3.33;;
15480;SDS011;7842;50.904;6.670;2023-07-20T04:10:29;7.32;;;3.40;;
15480;SDS011;7842;50.904;6.670;2023-07-20T04:12:54;4.18;;;3.00;;
15480;SDS011;7842;50.904;6.670;2023-07-20T04:15:20;4.00;;;3.10;;
15480;SDS011;7842;50.904;6.670;2023-07-20T04:17:46;5.37;;;3.20;;
15480;SDS011;7842;50.904;6.670;2023-07-20T04:20:12;4.13;;;2.90;;
15480;SDS011;7842;50.904;6.670;2023-07-20T04:22:40;5.60;;;3.10;;
15480;SDS011;7842;50.904;6.670;2023-07-20T04:25:05;6.60;;;3.33;;
15480;SDS011;7842;50.904;6.670;2023-07-20T04:27:31;4.35;;;3.10;;
15480;SDS011;7842;50.904;6.670;2023-07-20T04:30:00;4.78;;;2.88;;
15480;SDS011;7842;50.904;6.670;2023-07-20T04:32:25;8.30;;;3.77;;
15480;SDS011;7842;50.904;6.670;2023-07-20T04:34:51;6.80;;;3.37;;
15480;SDS011;7842;50.904;6.670;2023-07-20T04:37:17;6.03;;;3.88;;
15480;SDS011;7842;50.904;6.670;2023-07-20T04:39:42;5.20;;;3.20;;
15480;SDS011;7842;50.904;6.670;2023-07-20T04:42:08;6.37;;;3.53;;
15480;SDS011;7842;50.904;6.670;2023-07-20T04:44:33;5.90;;;3.55;;
15480;SDS011;7842;50.904;6.670;2023-07-20T04:46:59;5.67;;;3.67;;
15480;SDS011;7842;50.904;6.670;2023-07-20T04:49:25;5.15;;;3.50;;
15480;SDS011;7842;50.904;6.670;2023-07-20T04:51:51;7.25;;;3.70;;
15480;SDS011;7842;50.904;6.670;2023-07-20T04:54:16;6.07;;;3.60;;
15480;SDS011;7842;50.904;6.670;2023-07-20T04:56:43;6.63;;;3.63;;
15480;SDS011;7842;50.904;6.670;2023-07-20T04:59:09;8.13;;;4.03;;
15480;SDS011;7842;50.904;6.670;2023-07-20T05:01:35;7.43;;;4.00;;
15480;SDS011;7842;50.904;6.670;2023-07-20T05:04:01;5.32;;;3.75;;
15480;SDS011;7842;50.904;6.670;2023-07-20T05:06:26;6.38;;;4.13;;
15480;SDS011;7842;50.904;6.670;2023-07-20T05:08:52;9.25;;;4.43;;
15480;SDS011;7842;50.904;6.670;2023-07-20T05:11:18;6.63;;;4.13;;
15480;SDS011;7842;50.904;6.670;2023-07-20T05:13:43;6.25;;;4.20;;
15480;SDS011;7842;50.904;6.670;2023-07-20T05:16:09;5.65;;;3.60;;
15480;SDS011;7842;50.904;6.670;2023-07-20T05:18:37;8.40;;;4.10;;
15480;SDS011;7842;50.904;6.670;2023-07-20T05:21:02;5.40;;;3.70;;
15480;SDS011;7842;50.904;6.670;2023-07-20T05:23:31;6.00;;;4.22;;
15480;SDS011;7842;50.904;6.670;2023-07-20T05:25:57;9.03;;;4.40;;
15480;SDS011;7842;50.904;6.670;2023-07-20T05:28:24;4.90;;;4.03;;
15480;SDS011;7842;50.904;6.670;2023-07-20T05:30:51;7.63;;;4.60;;
15480;SDS011;7842;50.904;6.670;2023-07-20T05:33:18;5.73;;;4.33;;
15480;SDS011;7842;50.904;6.670;2023-07-20T05:35:44;8.37;;;4.73;;
15480;SDS011;7842;50.904;6.670;2023-07-20T05:38:10;7.27;;;4.43;;
15480;SDS011;7842;50.904;6.670;2023-07-20T05:40:37;7.18;;;4.47;;
15480;SDS011;7842;50.904;6.670;2023-07-20T05:43:04;7.20;;;4.53;;
15480;SDS011;7842;50.904;6.670;2023-07-20T05:45:30;7.37;;;4.50;;
15480;SDS011;7842;50.904;6.670;2023-07-20T05:47:56;8.17;;;5.40;;
15480;SDS011;7842;50.904;6.670;2023-07-20T05:50:21;7.00;;;5.00;;
15480;SDS011;7842;50.904;6.670;2023-07-20T05:52:47;7.77;;;5.17;;
15480;SDS011;7842;50.904;6.670;2023-07-20T05:55:13;7.67;;;5.00;;
15480;SDS011;7842;50.904;6.670;2023-07-20T05:57:38;9.23;;;4.72;;
15480;SDS011;7842;50.904;6.670;2023-07-20T06:00:08;8.27;;;5.82;;
15480;SDS011;7842;50.904;6.670;2023-07-20T06:02:34;10.88;;;6.60;;
15480;SDS011;7842;50.904;6.670;2023-07-20T06:05:00;7.05;;;5.25;;
15480;SDS011;7842;50.904;6.670;2023-07-20T06:07:26;9.05;;;6.15;;
15480;SDS011;7842;50.904;6.670;2023-07-20T06:09:51;8.57;;;6.20;;
15480;SDS011;7842;50.904;6.670;2023-07-20T06:12:17;9.05;;;6.53;;
15480;SDS011;7842;50.904;6.670;2023-07-20T06:14:43;9.50;;;7.53;;
15480;SDS011;7842;50.904;6.670;2023-07-20T06:17:11;10.63;;;7.88;;
15480;SDS011;7842;50.904;6.670;2023-07-20T06:19:37;10.63;;;8.48;;
15480;SDS011;7842;50.904;6.670;2023-07-20T06:22:02;10.30;;;8.20;;
15480;SDS011;7842;50.904;6.670;2023-07-20T06:24:28;11.83;;;9.93;;
15480;SDS011;7842;50.904;6.670;2023-07-20T06:26:54;13.00;;;9.23;;
15480;SDS011;7842;50.904;6.670;2023-07-20T06:29:19;11.82;;;9.25;;
15480;SDS011;7842;50.904;6.670;2023-07-20T06:31:45;9.60;;;8.60;;
15480;SDS011;7842;50.904;6.670;2023-07-20T06:34:11;10.65;;;8.95;;
15480;SDS011;7842;50.904;6.670;2023-07-20T06:36:36;11.97;;;9.27;;
15480;SDS011;7842;50.904;6.670;2023-07-20T06:39:02;10.00;;;8.30;;
15480;SDS011;7842;50.904;6.670;2023-07-20T06:41:28;9.48;;;8.48;;
15480;SDS011;7842;50.904;6.670;2023-07-20T06:43:53;8.90;;;7.72;;
15480;SDS011;7842;50.904;6.670;2023-07-20T06:46:23;9.88;;;7.63;;
15480;SDS011;7842;50.904;6.670;2023-07-20T06:48:52;9.15;;;7.30;;
15480;SDS011;7842;50.904;6.670;2023-07-20T06:51:18;9.53;;;7.67;;
15480;SDS011;7842;50.904;6.670;2023-07-20T06:53:44;8.80;;;7.47;;
15480;SDS011;7842;50.904;6.670;2023-07-20T06:56:10;9.53;;;7.47;;
15480;SDS011;7842;50.904;6.670;2023-07-20T06:58:36;8.48;;;7.18;;
15480;SDS011;7842;50.904;6.670;2023-07-20T07:01:05;9.55;;;7.50;;
15480;SDS011;7842;50.904;6.670;2023-07-20T07:03:31;9.77;;;7.80;;
15480;SDS011;7842;50.904;6.670;2023-07-20T07:05:58;10.05;;;7.93;;
15480;SDS011;7842;50.904;6.670;2023-07-20T07:08:23;10.75;;;8.32;;
15480;SDS011;7842;50.904;6.670;2023-07-20T07:10:49;11.50;;;8.85;;
15480;SDS011;7842;50.904;6.670;2023-07-20T07:13:15;10.52;;;8.27;;
15480;SDS011;7842;50.904;6.670;2023-07-20T07:15:42;11.20;;;7.60;;
15480;SDS011;7842;50.904;6.670;2023-07-20T07:18:07;8.20;;;6.88;;
15480;SDS011;7842;50.904;6.670;2023-07-20T07:20:33;10.33;;;7.10;;
15480;SDS011;7842;50.904;6.670;2023-07-20T07:22:59;9.57;;;6.77;;
15480;SDS011;7842;50.904;6.670;2023-07-20T07:25:25;7.43;;;6.50;;
15480;SDS011;7842;50.904;6.670;2023-07-20T07:27:53;7.35;;;5.78;;
15480;SDS011;7842;50.904;6.670;2023-07-20T07:30:19;8.90;;;5.72;;
15480;SDS011;7842;50.904;6.670;2023-07-20T07:32:45;7.38;;;5.90;;
15480;SDS011;7842;50.904;6.670;2023-07-20T07:35:11;7.18;;;5.72;;
15480;SDS011;7842;50.904;6.670;2023-07-20T07:37:37;6.60;;;5.55;;
15480;SDS011;7842;50.904;6.670;2023-07-20T07:40:03;7.63;;;4.90;;
15480;SDS011;7842;50.904;6.670;2023-07-20T07:42:31;7.13;;;5.40;;
15480;SDS011;7842;50.904;6.670;2023-07-20T07:44:56;6.82;;;5.90;;
15480;SDS011;7842;50.904;6.670;2023-07-20T07:47:22;5.87;;;5.27;;
15480;SDS011;7842;50.904;6.670;2023-07-20T07:49:47;6.40;;;5.00;;
15480;SDS011;7842;50.904;6.670;2023-07-20T07:52:14;6.10;;;4.93;;
15480;SDS011;7842;50.904;6.670;2023-07-20T07:54:39;5.68;;;4.82;;
15480;SDS011;7842;50.904;6.670;2023-07-20T07:57:05;6.60;;;4.60;;
15480;SDS011;7842;50.904;6.670;2023-07-20T07:59:31;5.65;;;4.90;;
15480;SDS011;7842;50.904;6.670;2023-07-20T08:02:01;6.00;;;4.83;;
15480;SDS011;7842;50.904;6.670;2023-07-20T08:04:28;6.88;;;4.75;;
15480;SDS011;7842;50.904;6.670;2023-07-20T08:06:54;5.80;;;4.82;;
15480;SDS011;7842;50.904;6.670;2023-07-20T08:09:20;8.07;;;5.90;;
15480;SDS011;7842;50.904;6.670;2023-07-20T08:11:45;5.80;;;5.20;;
15480;SDS011;7842;50.904;6.670;2023-07-20T08:14:12;5.87;;;4.57;;
15480;SDS011;7842;50.904;6.670;2023-07-20T08:16:38;5.17;;;4.57;;
15480;SDS011;7842;50.904;6.670;2023-07-20T08:19:03;6.20;;;4.88;;
15480;SDS011;7842;50.904;6.670;2023-07-20T08:21:29;6.73;;;4.97;;
15480;SDS011;7842;50.904;6.670;2023-07-20T08:23:55;5.28;;;4.45;;
15480;SDS011;7842;50.904;6.670;2023-07-20T08:26:20;4.97;;;4.43;;
15480;SDS011;7842;50.904;6.670;2023-07-20T08:28:47;5.10;;;4.50;;
15480;SDS011;7842;50.904;6.670;2023-07-20T08:31:13;5.30;;;4.38;;
15480;SDS011;7842;50.904;6.670;2023-07-20T08:33:39;5.40;;;4.10;;
15480;SDS011;7842;50.904;6.670;2023-07-20T08:36:07;4.28;;;3.70;;
15480;SDS011;7842;50.904;6.670;2023-07-20T08:38:33;4.80;;;3.80;;
15480;SDS011;7842;50.904;6.670;2023-07-20T08:40:59;3.67;;;2.57;;
15480;SDS011;7842;50.904;6.670;2023-07-20T08:43:26;4.60;;;2.60;;
15480;SDS011;7842;50.904;6.670;2023-07-20T08:45:56;5.43;;;3.72;;
15480;SDS011;7842;50.904;6.670;2023-07-20T08:48:22;4.97;;;4.10;;
15480;SDS011;7842;50.904;6.670;2023-07-20T08:50:52;4.93;;;3.38;;
15480;SDS011;7842;50.904;6.670;2023-07-20T08:53:22;5.45;;;4.35;;
15480;SDS011;7842;50.904;6.670;2023-07-20T08:55:48;5.03;;;3.45;;
15480;SDS011;7842;50.904;6.670;2023-07-20T08:58:16;4.57;;;3.70;;
15480;SDS011;7842;50.904;6.670;2023-07-20T09:00:42;4.00;;;3.33;;
15480;SDS011;7842;50.904;6.670;2023-07-20T09:03:08;4.80;;;3.80;;
15480;SDS011;7842;50.904;6.670;2023-07-20T09:05:36;4.95;;;3.88;;
15480;SDS011;7842;50.904;6.670;2023-07-20T09:08:01;5.47;;;3.60;;
15480;SDS011;7842;50.904;6.670;2023-07-20T09:10:28;5.47;;;3.88;;
15480;SDS011;7842;50.904;6.670;2023-07-20T09:12:54;4.38;;;3.88;;
15480;SDS011;7842;50.904;6.670;2023-07-20T09:15:21;6.45;;;4.35;;
15480;SDS011;7842;50.904;6.670;2023-07-20T09:17:48;5.05;;;4.00;;
15480;SDS011;7842;50.904;6.670;2023-07-20T09:20:15;5.13;;;4.05;;
15480;SDS011;7842;50.904;6.670;2023-07-20T09:22:43;5.20;;;3.45;;
15480;SDS011;7842;50.904;6.670;2023-07-20T09:25:12;3.85;;;3.15;;
15480;SDS011;7842;50.904;6.670;2023-07-20T09:27:39;3.15;;;2.70;;
15480;SDS011;7842;50.904;6.670;2023-07-20T09:30:06;4.10;;;2.70;;
15480;SDS011;7842;50.904;6.670;2023-07-20T09:32:40;3.67;;;3.15;;
15480;SDS011;7842;50.904;6.670;2023-07-20T09:37:46;4.00;;;2.80;;
15480;SDS011;7842;50.904;6.670;2023-07-20T09:40:16;3.08;;;2.70;;
15480;SDS011;7842;50.904;6.670;2023-07-20T09:42:42;3.80;;;3.00;;
15480;SDS011;7842;50.904;6.670;2023-07-20T09:45:08;3.80;;;2.60;;
15480;SDS011;7842;50.904;6.670;2023-07-20T09:47:35;4.50;;;2.70;;
15480;SDS011;7842;50.904;6.670;2023-07-20T09:50:03;4.20;;;2.70;;
15480;SDS011;7842;50.904;6.670;2023-07-20T09:52:29;3.55;;;2.80;;
15480;SDS011;7842;50.904;6.670;2023-07-20T09:54:55;3.53;;;2.65;;
15480;SDS011;7842;50.904;6.670;2023-07-20T09:57:22;3.85;;;2.55;;
15480;SDS011;7842;50.904;6.670;2023-07-20T09:59:48;3.67;;;2.50;;
15480;SDS011;7842;50.904;6.670;2023-07-20T10:02:21;3.05;;;2.70;;
15480;SDS011;7842;50.904;6.670;2023-07-20T10:04:51;3.30;;;2.53;;
15480;SDS011;7842;50.904;6.670;2023-07-20T10:07:19;4.25;;;2.60;;
15480;SDS011;7842;50.904;6.670;2023-07-20T10:09:48;4.35;;;2.70;;
15480;SDS011;7842;50.904;6.670;2023-07-20T10:12:16;3.35;;;2.50;;
15480;SDS011;7842;50.904;6.670;2023-07-20T10:14:46;3.63;;;2.70;;
15480;SDS011;7842;50.904;6.670;2023-07-20T10:17:14;2.67;;;2.25;;
15480;SDS011;7842;50.904;6.670;2023-07-20T10:19:44;2.25;;;1.95;;
15480;SDS011;7842;50.904;6.670;2023-07-20T10:22:14;3.07;;;2.40;;
15480;SDS011;7842;50.904;6.670;2023-07-20T10:24:46;3.40;;;2.20;;
15480;SDS011;7842;50.904;6.670;2023-07-20T10:27:13;3.95;;;1.98;;
15480;SDS011;7842;50.904;6.670;2023-07-20T10:29:40;2.33;;;1.90;;
15480;SDS011;7842;50.904;6.670;2023-07-20T10:32:07;2.30;;;2.10;;
15480;SDS011;7842;50.904;6.670;2023-07-20T10:34:33;2.00;;;1.80;;
15480;SDS011;7842;50.904;6.670;2023-07-20T10:36:59;2.17;;;1.77;;
15480;SDS011;7842;50.904;6.670;2023-07-20T10:39:28;3.83;;;2.10;;
15480;SDS011;7842;50.904;6.670;2023-07-20T10:42:09;2.63;;;1.63;;
15480;SDS011;7842;50.904;6.670;2023-07-20T10:44:39;1.98;;;1.70;;
15480;SDS011;7842;50.904;6.670;2023-07-20T10:47:09;2.17;;;1.98;;
15480;SDS011;7842;50.904;6.670;2023-07-20T10:49:35;2.70;;;1.70;;
15480;SDS011;7842;50.904;6.670;2023-07-20T10:52:21;2.53;;;1.40;;
15480;SDS011;7842;50.904;6.670;2023-07-20T10:54:47;2.67;;;1.50;;
15480;SDS011;7842;50.904;6.670;2023-07-20T10:57:21;1.67;;;1.30;;
15480;SDS011;7842;50.904;6.670;2023-07-20T10:59:47;2.83;;;1.48;;
15480;SDS011;7842;50.904;6.670;2023-07-20T11:02:13;2.08;;;1.50;;
15480;SDS011;7842;50.904;6.670;2023-07-20T11:04:44;2.30;;;1.30;;
15480;SDS011;7842;50.904;6.670;2023-07-20T11:07:56;2.60;;;1.33;;
15480;SDS011;7842;50.904;6.670;2023-07-20T11:10:12;1.90;;;1.48;;
15480;SDS011;7842;50.904;6.670;2023-07-20T11:12:42;1.48;;;1.38;;
15480;SDS011;7842;50.904;6.670;2023-07-20T11:15:48;2.40;;;1.50;;
15480;SDS011;7842;50.904;6.670;2023-07-20T11:18:28;1.30;;;1.20;;
15480;SDS011;7842;50.904;6.670;2023-07-20T11:20:54;1.33;;;1.20;;
15480;SDS011;7842;50.904;6.670;2023-07-20T11:23:20;1.30;;;1.20;;
15480;SDS011;7842;50.904;6.670;2023-07-20T11:25:46;1.45;;;1.35;;
15480;SDS011;7842;50.904;6.670;2023-07-20T11:28:12;1.70;;;1.30;;
15480;SDS011;7842;50.904;6.670;2023-07-20T11:30:38;1.92;;;1.58;;
15480;SDS011;7842;50.904;6.670;2023-07-20T11:33:04;1.75;;;1.30;;
15480;SDS011;7842;50.904;6.670;2023-07-20T11:35:36;2.72;;;1.75;;
15480;SDS011;7842;50.904;6.670;2023-07-20T11:38:12;1.77;;;1.50;;
15480;SDS011;7842;50.904;6.670;2023-07-20T11:40:42;2.65;;;1.55;;
15480;SDS011;7842;50.904;6.670;2023-07-20T11:43:09;1.90;;;1.70;;
15480;SDS011;7842;50.904;6.670;2023-07-20T11:45:37;1.85;;;1.60;;
15480;SDS011;7842;50.904;6.670;2023-07-20T11:48:03;2.53;;;1.80;;
15480;SDS011;7842;50.904;6.670;2023-07-20T11:50:29;1.87;;;1.50;;
15480;SDS011;7842;50.904;6.670;2023-07-20T11:52:54;1.70;;;1.60;;
15480;SDS011;7842;50.904;6.670;2023-07-20T11:55:21;2.40;;;1.40;;
15480;SDS011;7842;50.904;6.670;2023-07-20T12:00:28;1.95;;;1.40;;
15480;SDS011;7842;50.904;6.670;2023-07-20T12:02:54;1.77;;;1.30;;
15480;SDS011;7842;50.904;6.670;2023-07-20T12:05:22;2.03;;;1.50;;
15480;SDS011;7842;50.904;6.670;2023-07-20T12:07:48;2.13;;;1.50;;
15480;SDS011;7842;50.904;6.670;2023-07-20T12:10:15;2.25;;;1.40;;
15480;SDS011;7842;50.904;6.670;2023-07-20T12:12:42;3.20;;;1.35;;
15480;SDS011;7842;50.904;6.670;2023-07-20T12:15:13;1.50;;;1.15;;
15480;SDS011;7842;50.904;6.670;2023-07-20T12:17:45;2.37;;;1.40;;
15480;SDS011;7842;50.904;6.670;2023-07-20T12:20:23;1.40;;;1.30;;
15480;SDS011;7842;50.904;6.670;2023-07-20T12:22:50;2.97;;;1.77;;
15480;SDS011;7842;50.904;6.670;2023-07-20T12:25:15;2.10;;;1.40;;
15480;SDS011;7842;50.904;6.670;2023-07-20T12:27:44;1.83;;;1.50;;
15480;SDS011;7842;50.904;6.670;2023-07-20T12:30:09;1.60;;;1.50;;
15480;SDS011;7842;50.904;6.670;2023-07-20T12:32:35;1.80;;;1.50;;
15480;SDS011;7842;50.904;6.670;2023-07-20T12:35:01;2.30;;;1.50;;
15480;SDS011;7842;50.904;6.670;2023-07-20T12:37:27;1.80;;;1.70;;
15480;SDS011;7842;50.904;6.670;2023-07-20T12:39:52;1.70;;;1.40;;
15480;SDS011;7842;50.904;6.670;2023-07-20T12:42:18;4.07;;;1.80;;
15480;SDS011;7842;50.904;6.670;2023-07-20T12:44:44;1.90;;;1.50;;
15480;SDS011;7842;50.904;6.670;2023-07-20T12:47:09;2.72;;;1.88;;
15480;SDS011;7842;50.904;6.670;2023-07-20T12:49:35;2.10;;;1.67;;
15480;SDS011;7842;50.904;6.670;2023-07-20T12:52:01;3.00;;;1.55;;
15480;SDS011;7842;50.904;6.670;2023-07-20T12:54:26;2.33;;;1.67;;
15480;SDS011;7842;50.904;6.670;2023-07-20T12:56:52;1.90;;;1.50;;
15480;SDS011;7842;50.904;6.670;2023-07-20T12:59:17;2.37;;;1.83;;
15480;SDS011;7842;50.904;6.670;2023-07-20T13:01:43;2.42;;;1.80;;
15480;SDS011;7842;50.904;6.670;2023-07-20T13:04:09;1.88;;;1.55;;
15480;SDS011;7842;50.904;6.670;2023-07-20T13:06:35;2.83;;;1.88;;
15480;SDS011;7842;50.904;6.670;2023-07-20T13:09:01;3.03;;;1.70;;
15480;SDS011;7842;50.904;6.670;2023-07-20T13:11:27;1.90;;;1.60;;
15480;SDS011;7842;50.904;6.670;2023-07-20T13:13:52;1.70;;;1.60;;
15480;SDS011;7842;50.904;6.670;2023-07-20T13:16:18;2.20;;;1.80;;
15480;SDS011;7842;50.904;6.670;2023-07-20T13:18:44;1.60;;;1.50;;
15480;SDS011;7842;50.904;6.670;2023-07-20T13:21:09;2.43;;;1.60;;
15480;SDS011;7842;50.904;6.670;2023-07-20T13:23:36;2.10;;;1.83;;
15480;SDS011;7842;50.904;6.670;2023-07-20T13:26:04;2.47;;;1.70;;
15480;SDS011;7842;50.904;6.670;2023-07-20T13:28:30;3.10;;;1.70;;
15480;SDS011;7842;50.904;6.670;2023-07-20T13:30:55;2.20;;;1.60;;
15480;SDS011;7842;50.904;6.670;2023-07-20T13:33:21;2.67;;;1.80;;
15480;SDS011;7842;50.904;6.670;2023-07-20T13:35:46;2.75;;;1.70;;
15480;SDS011;7842;50.904;6.670;2023-07-20T13:38:12;2.20;;;2.00;;
15480;SDS011;7842;50.904;6.670;2023-07-20T13:40:38;2.63;;;1.60;;
15480;SDS011;7842;50.904;6.670;2023-07-20T13:43:03;1.77;;;1.67;;
15480;SDS011;7842;50.904;6.670;2023-07-20T13:45:29;1.90;;;1.67;;
15480;SDS011;7842;50.904;6.670;2023-07-20T13:47:55;1.63;;;1.50;;
15480;SDS011;7842;50.904;6.670;2023-07-20T13:50:20;1.70;;;1.60;;
15480;SDS011;7842;50.904;6.670;2023-07-20T13:52:46;1.60;;;1.50;;
15480;SDS011;7842;50.904;6.670;2023-07-20T13:55:12;2.60;;;1.87;;
15480;SDS011;7842;50.904;6.670;2023-07-20T13:57:38;2.40;;;1.90;;
15480;SDS011;7842;50.904;6.670;2023-07-20T14:00:03;2.40;;;1.70;;
15480;SDS011;7842;50.904;6.670;2023-07-20T14:02:30;1.80;;;1.70;;
15480;SDS011;7842;50.904;6.670;2023-07-20T14:04:56;2.05;;;1.70;;
15480;SDS011;7842;50.904;6.670;2023-07-20T14:07:22;2.30;;;1.98;;
15480;SDS011;7842;50.904;6.670;2023-07-20T14:09:47;2.30;;;1.80;;
15480;SDS011;7842;50.904;6.670;2023-07-20T14:12:13;2.03;;;1.83;;
15480;SDS011;7842;50.904;6.670;2023-07-20T14:14:39;1.55;;;1.40;;
15480;SDS011;7842;50.904;6.670;2023-07-20T14:17:08;1.90;;;1.60;;
15480;SDS011;7842;50.904;6.670;2023-07-20T14:19:36;6.20;;;1.50;;
15480;SDS011;7842;50.904;6.670;2023-07-20T14:22:02;1.77;;;1.23;;
15480;SDS011;7842;50.904;6.670;2023-07-20T14:24:28;1.65;;;1.50;;
15480;SDS011;7842;50.904;6.670;2023-07-20T14:26:54;1.70;;;1.45;;
15480;SDS011;7842;50.904;6.670;2023-07-20T14:29:20;1.77;;;1.67;;
15480;SDS011;7842;50.904;6.670;2023-07-20T14:31:46;1.58;;;1.40;;
15480;SDS011;7842;50.904;6.670;2023-07-20T14:34:16;1.95;;;1.60;;
15480;SDS011;7842;50.904;6.670;2023-07-20T14:36:43;1.65;;;1.55;;
15480;SDS011;7842;50.904;6.670;2023-07-20T14:39:08;1.87;;;1.57;;
15480;SDS011;7842;50.904;6.670;2023-07-20T14:41:34;2.05;;;1.85;;
15480;SDS011;7842;50.904;6.670;2023-07-20T14:44:00;2.10;;;1.90;;
15480;SDS011;7842;50.904;6.670;2023-07-20T14:46:25;1.77;;;1.63;;
15480;SDS011;7842;50.904;6.670;2023-07-20T14:48:51;1.83;;;1.60;;
15480;SDS011;7842;50.904;6.670;2023-07-20T14:51:17;2.30;;;1.60;;
15480;SDS011;7842;50.904;6.670;2023-07-20T14:53:42;2.30;;;1.90;;
15480;SDS011;7842;50.904;6.670;2023-07-20T14:56:08;2.10;;;1.80;;
15480;SDS011;7842;50.904;6.670;2023-07-20T14:58:35;2.10;;;1.73;;
15480;SDS011;7842;50.904;6.670;2023-07-20T15:01:00;1.70;;;1.60;;
15480;SDS011;7842;50.904;6.670;2023-07-20T15:03:26;2.40;;;2.00;;
15480;SDS011;7842;50.904;6.670;2023-07-20T15:05:51;2.40;;;2.20;;
15480;SDS011;7842;50.904;6.670;2023-07-20T15:08:17;3.03;;;1.90;;
15480;SDS011;7842;50.904;6.670;2023-07-20T15:10:44;2.17;;;1.98;;